sensor_id;sensor_type;location;lat;lon;timestamp;pressure;altitude;pressure_sealevel;temperature;humidity
16821;BME280;8527;49.740;6.604;2023-04-19T00:01:15;100430.38;;;10.59;78.78
16821;BME280;8527;49.740;6.604;2023-04-19T00:06:14;100430.22;;;10.60;79.16
16821;BME280;8527;49.740;6.604;2023-04-19T00:11:12;100438.50;;;10.57;79.31
16821;BME280;8527;49.740;6.604;2023-04-19T00:16:11;100432.22;;;10.58;79.19
16821;BME280;8527;49.740;6.604;2023-04-19T00:21:12;100434.00;;;10.58;78.88
16821;BME280;8527;49.740;6.604;2023-04-19T00:26:14;100428.88;;;10.56;78.90
16821;BME280;8527;49.740;6.604;2023-04-19T00:31:12;100426.22;;;10.56;78.96
16821;BME280;8527;49.740;6.604;2023-04-19T00:36:16;100432.88;;;10.60;78.85
16821;BME280;8527;49.740;6.604;2023-04-19T00:41:15;100431.75;;;10.63;79.00
16821;BME280;8527;49.740;6.604;2023-04-19T00:46:19;100423.09;;;10.61;79.16
16821;BME280;8527;49.740;6.604;2023-04-19T00:51:20;100417.63;;;10.62;78.96
16821;BME280;8527;49.740;6.604;2023-04-19T00:56:22;100419.97;;;10.65;78.75
16821;BME280;8527;49.740;6.604;2023-04-19T01:01:21;100410.53;;;10.63;79.01
16821;BME280;8527;49.740;6.604;2023-04-19T01:06:22;100413.84;;;10.65;78.99
16821;BME280;8527;49.740;6.604;2023-04-19T01:11:28;100404.91;;;10.66;78.88
16821;BME280;8527;49.740;6.604;2023-04-19T01:16:29;100410.03;;;10.67;78.67
16821;BME280;8527;49.740;6.604;2023-04-19T01:21:30;100409.09;;;10.68;79.14
16821;BME280;8527;49.740;6.604;2023-04-19T01:26:31;100400.81;;;10.72;78.80
16821;BME280;8527;49.740;6.604;2023-04-19T01:31:30;100397.47;;;10.69;78.73
16821;BME280;8527;49.740;6.604;2023-04-19T01:36:42;100394.97;;;10.68;78.62
16821;BME280;8527;49.740;6.604;2023-04-19T01:41:43;100396.63;;;10.69;78.54
16821;BME280;8527;49.740;6.604;2023-04-19T01:46:41;100386.69;;;10.71;78.38
16821;BME280;8527;49.740;6.604;2023-04-19T01:51:40;100385.34;;;10.67;78.54
16821;BME280;8527;49.740;6.604;2023-04-19T01:56:39;100386.47;;;10.64;78.50
16821;BME280;8527;49.740;6.604;2023-04-19T02:01:40;100380.19;;;10.65;78.89
16821;BME280;8527;49.740;6.604;2023-04-19T02:06:40;100386.16;;;10.67;78.79
16821;BME280;8527;49.740;6.604;2023-04-19T02:11:42;100377.84;;;10.62;78.77
16821;BME280;8527;49.740;6.604;2023-04-19T02:16:45;100374.50;;;10.60;78.86
16821;BME280;8527;49.740;6.604;2023-04-19T02:21:44;100369.06;;;10.62;78.72
16821;BME280;8527;49.740;6.604;2023-04-19T02:26:51;100362.06;;;10.61;78.71
16821;BME280;8527;49.740;6.604;2023-04-19T02:31:52;100362.22;;;10.59;79.23
16821;BME280;8527;49.740;6.604;2023-04-19T02:36:51;100367.00;;;10.55;78.89
16821;BME280;8527;49.740;6.604;2023-04-19T02:41:50;100356.53;;;10.54;78.94
16821;BME280;8527;49.740;6.604;2023-04-19T02:46:54;100358.38;;;10.53;78.99
16821;BME280;8527;49.740;6.604;2023-04-19T02:51:52;100357.03;;;10.49;79.26
16821;BME280;8527;49.740;6.604;2023-04-19T02:56:51;100349.72;;;10.51;79.17
16821;BME280;8527;49.740;6.604;2023-04-19T03:01:54;100352.66;;;10.48;79.13
16821;BME280;8527;49.740;6.604;2023-04-19T03:06:53;100355.09;;;10.41;79.23
16821;BME280;8527;49.740;6.604;2023-04-19T03:11:51;100354.97;;;10.43;79.25
16821;BME280;8527;49.740;6.604;2023-04-19T03:16:55;100350.06;;;10.38;79.66
16821;BME280;8527;49.740;6.604;2023-04-19T03:21:53;100338.94;;;10.35;79.75
16821;BME280;8527;49.740;6.604;2023-04-19T03:26:52;100345.34;;;10.42;79.71
16821;BME280;8527;49.740;6.604;2023-04-19T03:32:01;100343.69;;;10.41;79.60
16821;BME280;8527;49.740;6.604;2023-04-19T03:37:08;100342.38;;;10.45;79.71
16821;BME280;8527;49.740;6.604;2023-04-19T03:42:06;100347.28;;;10.40;79.96
16821;BME280;8527;49.740;6.604;2023-04-19T03:47:08;100335.00;;;10.39;79.79
16821;BME280;8527;49.740;6.604;2023-04-19T03:52:08;100336.00;;;10.38;80.13
16821;BME280;8527;49.740;6.604;2023-04-19T03:57:07;100331.69;;;10.37;79.94
16821;BME280;8527;49.740;6.604;2023-04-19T04:02:10;100325.22;;;10.39;80.24
16821;BME280;8527;49.740;6.604;2023-04-19T04:07:08;100336.00;;;10.38;80.07
16821;BME280;8527;49.740;6.604;2023-04-19T04:12:07;100339.19;;;10.41;80.15
16821;BME280;8527;49.740;6.604;2023-04-19T04:17:09;100337.94;;;10.36;80.64
16821;BME280;8527;49.740;6.604;2023-04-19T04:22:11;100336.81;;;10.38;80.50
16821;BME280;8527;49.740;6.604;2023-04-19T04:27:10;100346.63;;;10.38;80.33
16821;BME280;8527;49.740;6.604;2023-04-19T04:32:18;100341.31;;;10.38;80.63
16821;BME280;8527;49.740;6.604;2023-04-19T04:37:17;100345.75;;;10.37;80.63
16821;BME280;8527;49.740;6.604;2023-04-19T04:42:15;100342.34;;;10.27;80.67
16821;BME280;8527;49.740;6.604;2023-04-19T04:47:19;100341.00;;;10.23;81.06
16821;BME280;8527;49.740;6.604;2023-04-19T04:52:18;100344.25;;;10.35;80.60
16821;BME280;8527;49.740;6.604;2023-04-19T04:57:16;100347.16;;;10.41;80.37
16821;BME280;8527;49.740;6.604;2023-04-19T05:02:14;100362.16;;;10.51;80.36
16821;BME280;8527;49.740;6.604;2023-04-19T05:07:18;100350.72;;;10.50;80.29
16821;BME280;8527;49.740;6.604;2023-04-19T05:12:18;100345.63;;;10.39;80.51
16821;BME280;8527;49.740;6.604;2023-04-19T05:17:16;100356.00;;;10.32;81.08
16821;BME280;8527;49.740;6.604;2023-04-19T05:22:15;100356.22;;;10.21;81.43
16821;BME280;8527;49.740;6.604;2023-04-19T05:27:18;100364.94;;;10.31;81.74
16821;BME280;8527;49.740;6.604;2023-04-19T05:32:20;100366.53;;;10.24;81.99
16821;BME280;8527;49.740;6.604;2023-04-19T05:37:19;100358.13;;;10.28;82.09
16821;BME280;8527;49.740;6.604;2023-04-19T05:42:21;100369.09;;;10.34;81.62
16821;BME280;8527;49.740;6.604;2023-04-19T05:47:20;100372.59;;;10.34;82.22
16821;BME280;8527;49.740;6.604;2023-04-19T05:52:18;100368.88;;;10.27;82.51
16821;BME280;8527;49.740;6.604;2023-04-19T05:57:21;100369.72;;;10.27;82.54
16821;BME280;8527;49.740;6.604;2023-04-19T06:02:20;100370.94;;;10.33;82.65
16821;BME280;8527;49.740;6.604;2023-04-19T06:07:19;100376.38;;;10.32;82.81
16821;BME280;8527;49.740;6.604;2023-04-19T06:12:17;100380.91;;;10.21;82.89
16821;BME280;8527;49.740;6.604;2023-04-19T06:17:18;100378.94;;;10.23;83.26
16821;BME280;8527;49.740;6.604;2023-04-19T06:22:19;100380.31;;;10.27;83.54
16821;BME280;8527;49.740;6.604;2023-04-19T06:27:18;100375.03;;;10.27;83.54
16821;BME280;8527;49.740;6.604;2023-04-19T06:32:19;100385.19;;;10.32;83.48
16821;BME280;8527;49.740;6.604;2023-04-19T06:37:17;100386.97;;;10.32;83.97
16821;BME280;8527;49.740;6.604;2023-04-19T06:42:15;100390.63;;;10.31;83.61
16821;BME280;8527;49.740;6.604;2023-04-19T06:47:20;100389.63;;;10.32;83.82
16821;BME280;8527;49.740;6.604;2023-04-19T06:52:19;100389.88;;;10.38;83.63
16821;BME280;8527;49.740;6.604;2023-04-19T06:57:17;100388.34;;;10.36;83.85
16821;BME280;8527;49.740;6.604;2023-04-19T07:02:16;100378.53;;;10.46;83.52
16821;BME280;8527;49.740;6.604;2023-04-19T07:07:17;100387.03;;;10.50;83.57
16821;BME280;8527;49.740;6.604;2023-04-19T07:12:15;100383.91;;;10.54;83.20
16821;BME280;8527;49.740;6.604;2023-04-19T07:17:13;100379.72;;;10.52;82.86
16821;BME280;8527;49.740;6.604;2023-04-19T07:22:13;100388.81;;;10.67;82.71
16821;BME280;8527;49.740;6.604;2023-04-19T07:27:15;100378.50;;;10.82;82.18
16821;BME280;8527;49.740;6.604;2023-04-19T07:32:13;100372.94;;;10.94;81.73
16821;BME280;8527;49.740;6.604;2023-04-19T07:37:15;100379.13;;;11.03;81.01
16821;BME280;8527;49.740;6.604;2023-04-19T07:42:23;100373.41;;;11.16;80.55
16821;BME280;8527;49.740;6.604;2023-04-19T07:47:21;100365.78;;;11.21;80.41
16821;BME280;8527;49.740;6.604;2023-04-19T07:52:23;100372.25;;;11.18;80.12
16821;BME280;8527;49.740;6.604;2023-04-19T07:57:24;100373.72;;;11.13;80.70
16821;BME280;8527;49.740;6.604;2023-04-19T08:02:23;100360.66;;;11.19;80.18
16821;BME280;8527;49.740;6.604;2023-04-19T08:07:25;100358.06;;;11.36;80.27
16821;BME280;8527;49.740;6.604;2023-04-19T08:12:26;100359.59;;;11.38;79.61
16821;BME280;8527;49.740;6.604;2023-04-19T08:17:28;100360.81;;;11.52;79.29
16821;BME280;8527;49.740;6.604;2023-04-19T08:22:26;100361.19;;;11.66;78.59
16821;BME280;8527;49.740;6.604;2023-04-19T08:27:27;100354.53;;;11.62;79.29
16821;BME280;8527;49.740;6.604;2023-04-19T08:32:26;100354.88;;;11.67;78.69
16821;BME280;8527;49.740;6.604;2023-04-19T08:37:24;100356.56;;;11.76;78.67
16821;BME280;8527;49.740;6.604;2023-04-19T08:42:28;100355.72;;;11.67;78.41
16821;BME280;8527;49.740;6.604;2023-04-19T08:47:31;100350.09;;;11.79;78.89
16821;BME280;8527;49.740;6.604;2023-04-19T08:52:33;100349.81;;;11.90;78.38
16821;BME280;8527;49.740;6.604;2023-04-19T08:57:35;100344.13;;;11.85;77.75
16821;BME280;8527;49.740;6.604;2023-04-19T09:02:44;100336.50;;;11.99;77.72
16821;BME280;8527;49.740;6.604;2023-04-19T09:07:46;100334.94;;;12.22;76.80
16821;BME280;8527;49.740;6.604;2023-04-19T09:13:02;100324.97;;;12.33;75.74
16821;BME280;8527;49.740;6.604;2023-04-19T09:18:03;100324.28;;;12.47;75.09
16821;BME280;8527;49.740;6.604;2023-04-19T09:23:07;100309.25;;;12.96;74.19
16821;BME280;8527;49.740;6.604;2023-04-19T09:28:13;100305.63;;;13.37;72.49
16821;BME280;8527;49.740;6.604;2023-04-19T09:33:19;100291.19;;;13.95;70.12
16821;BME280;8527;49.740;6.604;2023-04-19T09:38:30;100292.81;;;14.42;66.84
16821;BME280;8527;49.740;6.604;2023-04-19T09:43:46;100297.97;;;14.44;66.01
16821;BME280;8527;49.740;6.604;2023-04-19T09:48:46;100283.66;;;13.98;67.96
16821;BME280;8527;49.740;6.604;2023-04-19T09:53:50;100280.19;;;13.89;69.07
16821;BME280;8527;49.740;6.604;2023-04-19T09:58:55;100278.50;;;13.97;68.67
16821;BME280;8527;49.740;6.604;2023-04-19T10:03:53;100276.34;;;14.39;67.19
16821;BME280;8527;49.740;6.604;2023-04-19T10:08:53;100263.56;;;14.49;66.44
16821;BME280;8527;49.740;6.604;2023-04-19T10:13:59;100254.34;;;14.37;66.26
16821;BME280;8527;49.740;6.604;2023-04-19T10:18:59;100245.44;;;14.21;66.67
16821;BME280;8527;49.740;6.604;2023-04-19T10:24:01;100238.00;;;14.31;65.74
16821;BME280;8527;49.740;6.604;2023-04-19T10:29:05;100236.94;;;14.02;67.02
16821;BME280;8527;49.740;6.604;2023-04-19T10:34:05;100230.91;;;14.24;66.17
16821;BME280;8527;49.740;6.604;2023-04-19T10:39:03;100218.72;;;14.44;66.23
16821;BME280;8527;49.740;6.604;2023-04-19T10:44:10;100215.59;;;14.56;65.03
16821;BME280;8527;49.740;6.604;2023-04-19T10:49:09;100216.41;;;14.56;64.23
16821;BME280;8527;49.740;6.604;2023-04-19T10:54:08;100214.69;;;14.79;64.42
16821;BME280;8527;49.740;6.604;2023-04-19T10:59:16;100207.84;;;15.06;62.82
16821;BME280;8527;49.740;6.604;2023-04-19T11:04:22;100193.69;;;14.75;62.08
16821;BME280;8527;49.740;6.604;2023-04-19T11:09:25;100193.53;;;14.92;63.48
16821;BME280;8527;49.740;6.604;2023-04-19T11:14:27;100178.97;;;14.80;63.74
16821;BME280;8527;49.740;6.604;2023-04-19T11:19:30;100184.81;;;15.05;63.88
16821;BME280;8527;49.740;6.604;2023-04-19T11:24:36;100181.78;;;15.08;62.94
16821;BME280;8527;49.740;6.604;2023-04-19T11:29:38;100171.53;;;15.12;62.77
16821;BME280;8527;49.740;6.604;2023-04-19T11:34:39;100172.41;;;14.97;63.72
16821;BME280;8527;49.740;6.604;2023-04-19T11:39:45;100151.84;;;14.98;64.67
16821;BME280;8527;49.740;6.604;2023-04-19T11:44:59;100147.09;;;14.93;64.65
16821;BME280;8527;49.740;6.604;2023-04-19T11:50:30;100127.66;;;15.21;64.34
16821;BME280;8527;49.740;6.604;2023-04-19T11:55:32;100135.59;;;15.14;63.68
16821;BME280;8527;49.740;6.604;2023-04-19T12:00:36;100136.59;;;14.76;63.79
16821;BME280;8527;49.740;6.604;2023-04-19T12:05:39;100131.81;;;14.57;64.06
16821;BME280;8527;49.740;6.604;2023-04-19T12:10:54;100126.34;;;14.65;62.77
16821;BME280;8527;49.740;6.604;2023-04-19T12:15:56;100127.19;;;14.51;61.80
16821;BME280;8527;49.740;6.604;2023-04-19T12:20:54;100113.84;;;14.51;61.83
16821;BME280;8527;49.740;6.604;2023-04-19T12:25:53;100105.78;;;14.74;61.37
16821;BME280;8527;49.740;6.604;2023-04-19T12:30:51;100105.09;;;14.87;58.66
16821;BME280;8527;49.740;6.604;2023-04-19T12:35:52;100106.00;;;14.94;58.48
16821;BME280;8527;49.740;6.604;2023-04-19T12:40:52;100085.59;;;15.52;56.63
16821;BME280;8527;49.740;6.604;2023-04-19T12:45:50;100093.03;;;15.35;52.70
16821;BME280;8527;49.740;6.604;2023-04-19T12:50:51;100077.06;;;15.19;55.25
16821;BME280;8527;49.740;6.604;2023-04-19T12:55:53;100079.88;;;15.11;55.86
16821;BME280;8527;49.740;6.604;2023-04-19T13:00:52;100073.44;;;15.05;55.76
16821;BME280;8527;49.740;6.604;2023-04-19T13:05:59;100069.81;;;15.13;55.92
16821;BME280;8527;49.740;6.604;2023-04-19T13:10:58;100058.56;;;15.18;55.60
16821;BME280;8527;49.740;6.604;2023-04-19T13:15:57;100047.41;;;15.14;56.29
16821;BME280;8527;49.740;6.604;2023-04-19T13:20:58;100046.91;;;15.04;56.74
16821;BME280;8527;49.740;6.604;2023-04-19T13:26:00;100041.88;;;14.94;57.36
16821;BME280;8527;49.740;6.604;2023-04-19T13:31:00;100029.16;;;14.96;57.60
16821;BME280;8527;49.740;6.604;2023-04-19T13:36:03;100022.34;;;15.15;57.06
16821;BME280;8527;49.740;6.604;2023-04-19T13:41:02;100017.59;;;15.39;57.12
16821;BME280;8527;49.740;6.604;2023-04-19T13:46:00;100011.25;;;15.40;56.09
16821;BME280;8527;49.740;6.604;2023-04-19T13:51:04;99995.25;;;15.47;55.21
16821;BME280;8527;49.740;6.604;2023-04-19T13:56:04;99984.19;;;15.57;53.89
16821;BME280;8527;49.740;6.604;2023-04-19T14:01:03;99986.38;;;15.75;53.27
16821;BME280;8527;49.740;6.604;2023-04-19T14:06:05;99969.91;;;15.78;49.03
16821;BME280;8527;49.740;6.604;2023-04-19T14:11:04;99962.81;;;15.92;49.43
16821;BME280;8527;49.740;6.604;2023-04-19T14:16:14;99958.63;;;15.83;43.27
16821;BME280;8527;49.740;6.604;2023-04-19T14:21:21;99950.06;;;15.94;42.58
16821;BME280;8527;49.740;6.604;2023-04-19T14:26:24;99940.00;;;15.96;43.15
16821;BME280;8527;49.740;6.604;2023-04-19T14:31:27;99951.00;;;16.15;43.49
16821;BME280;8527;49.740;6.604;2023-04-19T14:36:32;99938.63;;;16.14;42.57
16821;BME280;8527;49.740;6.604;2023-04-19T14:41:30;99932.19;;;16.01;42.29
16821;BME280;8527;49.740;6.604;2023-04-19T14:46:34;99935.06;;;16.00;40.81
16821;BME280;8527;49.740;6.604;2023-04-19T14:51:36;99925.44;;;16.12;42.51
16821;BME280;8527;49.740;6.604;2023-04-19T14:56:38;99910.72;;;15.88;42.82
16821;BME280;8527;49.740;6.604;2023-04-19T15:01:40;99914.56;;;15.79;42.79
16821;BME280;8527;49.740;6.604;2023-04-19T15:06:41;99914.19;;;15.88;42.47
16821;BME280;8527;49.740;6.604;2023-04-19T15:11:40;99900.75;;;15.68;41.96
16821;BME280;8527;49.740;6.604;2023-04-19T15:16:38;99916.94;;;15.60;41.06
16821;BME280;8527;49.740;6.604;2023-04-19T15:21:37;99918.00;;;15.66;40.79
16821;BME280;8527;49.740;6.604;2023-04-19T15:26:39;99897.41;;;15.59;39.77
16821;BME280;8527;49.740;6.604;2023-04-19T15:31:38;99900.84;;;15.53;39.60
16821;BME280;8527;49.740;6.604;2023-04-19T15:36:36;99901.34;;;15.70;39.63
16821;BME280;8527;49.740;6.604;2023-04-19T15:41:37;99902.84;;;15.80;40.28
16821;BME280;8527;49.740;6.604;2023-04-19T15:46:36;99902.97;;;15.65;40.03
16821;BME280;8527;49.740;6.604;2023-04-19T15:51:34;99897.47;;;15.73;38.80
16821;BME280;8527;49.740;6.604;2023-04-19T15:56:33;99898.25;;;15.67;37.81
16821;BME280;8527;49.740;6.604;2023-04-19T16:01:40;99891.22;;;15.59;37.11
16821;BME280;8527;49.740;6.604;2023-04-19T16:06:38;99889.81;;;15.63;37.48
16821;BME280;8527;49.740;6.604;2023-04-19T16:11:37;99896.97;;;15.56;38.28
16821;BME280;8527;49.740;6.604;2023-04-19T16:16:38;99899.00;;;15.47;37.54
16821;BME280;8527;49.740;6.604;2023-04-19T16:21:36;99901.66;;;15.47;36.87
16821;BME280;8527;49.740;6.604;2023-04-19T16:26:35;99909.66;;;15.40;34.66
16821;BME280;8527;49.740;6.604;2023-04-19T16:31:35;99913.44;;;15.24;33.55
16821;BME280;8527;49.740;6.604;2023-04-19T16:36:39;99903.81;;;15.01;33.38
16821;BME280;8527;49.740;6.604;2023-04-19T16:41:42;99903.97;;;14.93;34.43
16821;BME280;8527;49.740;6.604;2023-04-19T16:46:41;99899.84;;;14.90;35.57
16821;BME280;8527;49.740;6.604;2023-04-19T16:51:42;99903.44;;;14.76;36.00
16821;BME280;8527;49.740;6.604;2023-04-19T16:56:43;99895.50;;;14.68;36.33
16821;BME280;8527;49.740;6.604;2023-04-19T17:01:41;99893.50;;;14.48;35.94
16821;BME280;8527;49.740;6.604;2023-04-19T17:06:45;99891.00;;;14.46;36.23
16821;BME280;8527;49.740;6.604;2023-04-19T17:11:48;99883.56;;;14.42;36.48
16821;BME280;8527;49.740;6.604;2023-04-19T17:16:54;99885.53;;;14.33;36.50
16821;BME280;8527;49.740;6.604;2023-04-19T17:21:58;99877.91;;;14.30;36.75
16821;BME280;8527;49.740;6.604;2023-04-19T17:26:59;99871.28;;;14.26;36.39
16821;BME280;8527;49.740;6.604;2023-04-19T17:31:58;99878.13;;;14.13;36.38
16821;BME280;8527;49.740;6.604;2023-04-19T17:37:00;99883.25;;;14.30;35.95
16821;BME280;8527;49.740;6.604;2023-04-19T17:41:58;99887.00;;;14.35;38.20
16821;BME280;8527;49.740;6.604;2023-04-19T17:47:00;99889.34;;;14.24;38.37
16821;BME280;8527;49.740;6.604;2023-04-19T17:52:01;99891.47;;;14.13;38.50
16821;BME280;8527;49.740;6.604;2023-04-19T17:57:04;99886.28;;;14.05;37.53
16821;BME280;8527;49.740;6.604;2023-04-19T18:02:03;99898.31;;;14.01;38.25
16821;BME280;8527;49.740;6.604;2023-04-19T18:07:04;99905.34;;;13.87;37.19
16821;BME280;8527;49.740;6.604;2023-04-19T18:12:06;99901.75;;;13.79;37.42
16821;BME280;8527;49.740;6.604;2023-04-19T18:17:12;99910.97;;;13.62;35.65
16821;BME280;8527;49.740;6.604;2023-04-19T18:22:17;99916.13;;;13.48;35.38
16821;BME280;8527;49.740;6.604;2023-04-19T18:27:16;99918.00;;;13.40;35.79
16821;BME280;8527;49.740;6.604;2023-04-19T18:32:15;99920.69;;;13.25;34.54
16821;BME280;8527;49.740;6.604;2023-04-19T18:37:21;99929.09;;;13.13;35.46
16821;BME280;8527;49.740;6.604;2023-04-19T18:42:19;99927.72;;;13.02;35.02
16821;BME280;8527;49.740;6.604;2023-04-19T18:47:18;99930.44;;;12.94;35.00
16821;BME280;8527;49.740;6.604;2023-04-19T18:52:17;99940.13;;;12.87;35.78
16821;BME280;8527;49.740;6.604;2023-04-19T18:57:18;99947.50;;;12.61;37.61
16821;BME280;8527;49.740;6.604;2023-04-19T19:02:16;99948.25;;;12.47;37.54
16821;BME280;8527;49.740;6.604;2023-04-19T19:07:18;99959.78;;;12.39;37.95
16821;BME280;8527;49.740;6.604;2023-04-19T19:12:21;99969.16;;;12.27;38.36
16821;BME280;8527;49.740;6.604;2023-04-19T19:17:20;99970.34;;;12.24;39.09
16821;BME280;8527;49.740;6.604;2023-04-19T19:22:20;99972.34;;;12.22;39.47
16821;BME280;8527;49.740;6.604;2023-04-19T19:27:22;99967.84;;;12.22;39.89
16821;BME280;8527;49.740;6.604;2023-04-19T19:32:20;99975.19;;;12.12;41.69
16821;BME280;8527;49.740;6.604;2023-04-19T19:37:18;99979.91;;;12.02;41.84
16821;BME280;8527;49.740;6.604;2023-04-19T19:42:18;99985.22;;;11.85;44.96
16821;BME280;8527;49.740;6.604;2023-04-19T19:47:19;99988.09;;;11.84;44.44
16821;BME280;8527;49.740;6.604;2023-04-19T19:52:18;99989.25;;;11.81;46.15
16821;BME280;8527;49.740;6.604;2023-04-19T19:57:16;100000.59;;;11.50;46.96
16821;BME280;8527;49.740;6.604;2023-04-19T20:02:15;99997.78;;;11.43;45.04
16821;BME280;8527;49.740;6.604;2023-04-19T20:07:18;100000.63;;;11.42;46.77
16821;BME280;8527;49.740;6.604;2023-04-19T20:12:17;100005.28;;;11.15;47.67
16821;BME280;8527;49.740;6.604;2023-04-19T20:17:15;99999.78;;;11.00;43.27
16821;BME280;8527;49.740;6.604;2023-04-19T20:22:16;100000.97;;;10.89;42.58
16821;BME280;8527;49.740;6.604;2023-04-19T20:27:15;100004.75;;;10.86;43.75
16821;BME280;8527;49.740;6.604;2023-04-19T20:32:18;100011.56;;;10.80;44.71
16821;BME280;8527;49.740;6.604;2023-04-19T20:37:21;100012.03;;;10.76;45.13
16821;BME280;8527;49.740;6.604;2023-04-19T20:42:30;100012.38;;;10.73;44.98
16821;BME280;8527;49.740;6.604;2023-04-19T20:47:28;100008.22;;;10.62;45.14
16821;BME280;8527;49.740;6.604;2023-04-19T20:52:30;100008.13;;;10.37;49.42
16821;BME280;8527;49.740;6.604;2023-04-19T20:57:33;100013.78;;;10.42;48.53
16821;BME280;8527;49.740;6.604;2023-04-19T21:02:34;100016.63;;;10.14;47.36
16821;BME280;8527;49.740;6.604;2023-04-19T21:07:36;100017.66;;;10.21;48.60
16821;BME280;8527;49.740;6.604;2023-04-19T21:12:34;100016.13;;;10.10;48.61
16821;BME280;8527;49.740;6.604;2023-04-19T21:17:41;100016.53;;;9.97;50.65
16821;BME280;8527;49.740;6.604;2023-04-19T21:22:43;100015.50;;;9.55;50.14
16821;BME280;8527;49.740;6.604;2023-04-19T21:27:42;100018.97;;;9.56;52.79
16821;BME280;8527;49.740;6.604;2023-04-19T21:32:43;100020.31;;;9.60;54.07
16821;BME280;8527;49.740;6.604;2023-04-19T21:37:45;100010.94;;;9.48;53.95
16821;BME280;8527;49.740;6.604;2023-04-19T21:42:43;100015.16;;;9.14;54.48
16821;BME280;8527;49.740;6.604;2023-04-19T21:47:45;100016.31;;;9.11;56.17
16821;BME280;8527;49.740;6.604;2023-04-19T21:52:46;100012.28;;;9.07;56.09
16821;BME280;8527;49.740;6.604;2023-04-19T21:57:48;100016.91;;;8.87;55.47
16821;BME280;8527;49.740;6.604;2023-04-19T22:02:47;100020.31;;;8.79;56.93
16821;BME280;8527;49.740;6.604;2023-04-19T22:07:52;100013.38;;;8.78;57.02
16821;BME280;8527;49.740;6.604;2023-04-19T22:12:54;100012.06;;;8.64;56.30
16821;BME280;8527;49.740;6.604;2023-04-19T22:17:55;100008.66;;;8.54;57.81
16821;BME280;8527;49.740;6.604;2023-04-19T22:22:59;100007.44;;;8.38;57.57
16821;BME280;8527;49.740;6.604;2023-04-19T22:28:01;100011.69;;;8.31;58.89
16821;BME280;8527;49.740;6.604;2023-04-19T22:33:00;100010.16;;;8.00;58.27
16821;BME280;8527;49.740;6.604;2023-04-19T22:38:03;100004.38;;;7.87;58.15
16821;BME280;8527;49.740;6.604;2023-04-19T22:43:08;99996.75;;;7.74;58.93
16821;BME280;8527;49.740;6.604;2023-04-19T22:48:06;99999.72;;;7.61;58.90
16821;BME280;8527;49.740;6.604;2023-04-19T22:53:08;99996.91;;;7.63;59.26
16821;BME280;8527;49.740;6.604;2023-04-19T22:58:09;99981.38;;;7.59;59.36
16821;BME280;8527;49.740;6.604;2023-04-19T23:03:08;99989.31;;;7.50;60.04
16821;BME280;8527;49.740;6.604;2023-04-19T23:08:09;99978.19;;;7.46;59.88
16821;BME280;8527;49.740;6.604;2023-04-19T23:13:11;99977.97;;;7.29;60.82
16821;BME280;8527;49.740;6.604;2023-04-19T23:18:10;99968.66;;;7.35;60.49
16821;BME280;8527;49.740;6.604;2023-04-19T23:23:11;99961.19;;;7.21;60.31
16821;BME280;8527;49.740;6.604;2023-04-19T23:28:12;99958.25;;;7.14;60.02
16821;BME280;8527;49.740;6.604;2023-04-19T23:33:17;99958.00;;;6.97;60.63
16821;BME280;8527;49.740;6.604;2023-04-19T23:38:18;99946.63;;;6.97;61.10
16821;BME280;8527;49.740;6.604;2023-04-19T23:43:19;99943.31;;;6.65;60.28
16821;BME280;8527;49.740;6.604;2023-04-19T23:48:23;99947.88;;;6.83;60.32
16821;BME280;8527;49.740;6.604;2023-04-19T23:53:24;99942.59;;;6.53;60.66
16821;BME280;8527;49.740;6.604;2023-04-19T23:58:23;99939.25;;;6.41;62.07
